Time;durP1;ratioP1;P1;durP2;ratioP2;P2;SDS_P1;SDS_P2;PMS_P1;PMS_P2;Temp;Humidity;BMP_temperature;BMP_pressure;BME280_temperature;BME280_humidity;BME280_pressure;Samples;Min_cycle;Max_cycle;Signal;HPM_P1;HPM_P2
2022/04/08 00:01:19;;;;;;;;;2.50;0.00;;;;;;;;5073244;28;45319;-77
2022/04/08 00:03:45;;;;;;;;;3.25;1.25;;;;;;;;5077238;28;45235;-78
2022/04/08 00:06:10;;;;;;;;;1.00;1.00;;;;;;;;5064805;27;46498;-78
2022/04/08 00:08:35;;;;;;;;;2.00;0.00;;;;;;;;5070477;28;45148;-78
2022/04/08 00:11:01;;;;;;;;;8.00;0.50;;;;;;;;5076666;28;45452;-78
2022/04/08 00:13:26;;;;;;;;;2.00;2.00;;;;;;;;5076176;28;45240;-78
2022/04/08 00:15:51;;;;;;;;;0.00;0.00;;;;;;;;5077381;27;46710;-77
2022/04/08 00:18:17;;;;;;;;;2.00;1.00;;;;;;;;5065201;28;45467;-78
2022/04/08 00:20:43;;;;;;;;;0.00;0.00;;;;;;;;5071525;28;45498;-77
2022/04/08 00:23:08;;;;;;;;;0.00;0.00;;;;;;;;5076445;27;45435;-78
2022/04/08 00:25:33;;;;;;;;;0.00;0.00;;;;;;;;5076316;28;46300;-77
2022/04/08 00:27:58;;;;;;;;;1.00;1.00;;;;;;;;5076333;27;45403;-78
2022/04/08 00:30:24;;;;;;;;;1.25;1.00;;;;;;;;5064736;28;45435;-76
2022/04/08 00:32:51;;;;;;;;;1.00;1.00;;;;;;;;5073987;28;45426;-78
2022/04/08 00:35:16;;;;;;;;;0.00;0.00;;;;;;;;5078089;28;46100;-76
2022/04/08 00:37:41;;;;;;;;;0.75;0.75;;;;;;;;5075743;27;45501;-78
2022/04/08 00:40:07;;;;;;;;;0.00;0.00;;;;;;;;5069900;27;45422;-79
2022/04/08 00:42:32;;;;;;;;;1.50;0.00;;;;;;;;5076722;27;45502;-78
2022/04/08 00:44:58;;;;;;;;;2.50;0.00;;;;;;;;5075978;28;46041;-80
2022/04/08 00:47:23;;;;;;;;;0.00;0.00;;;;;;;;5075976;28;49684;-78
2022/04/08 00:49:48;;;;;;;;;1.25;0.00;;;;;;;;5076129;28;45510;-76
2022/04/08 00:52:14;;;;;;;;;2.00;0.25;;;;;;;;5076246;27;45223;-79
2022/04/08 00:54:40;;;;;;;;;2.75;0.00;;;;;;;;5064597;27;46308;-78
2022/04/08 00:57:05;;;;;;;;;2.00;0.75;;;;;;;;5073702;28;45532;-76
2022/04/08 00:59:31;;;;;;;;;2.75;1.75;;;;;;;;5075667;27;45337;-76
2022/04/08 01:01:57;;;;;;;;;0.00;0.00;;;;;;;;5076193;27;45839;-76
2022/04/08 01:04:23;;;;;;;;;0.75;0.00;;;;;;;;5073572;28;45638;-78
2022/04/08 01:06:49;;;;;;;;;0.00;0.00;;;;;;;;5076164;27;45420;-76
2022/04/08 01:09:14;;;;;;;;;2.00;0.50;;;;;;;;5068803;27;45391;-77
2022/04/08 01:11:40;;;;;;;;;1.00;0.00;;;;;;;;5070849;27;45637;-77
2022/04/08 01:14:13;;;;;;;;;0.00;0.00;;;;;;;;5075586;27;47232;-76
2022/04/08 01:16:39;;;;;;;;;1.75;0.00;;;;;;;;5073629;27;45473;-76
2022/04/08 01:19:04;;;;;;;;;0.25;0.25;;;;;;;;5075619;27;45412;-77
2022/04/08 01:21:31;;;;;;;;;0.50;0.00;;;;;;;;5075985;27;45381;-76
2022/04/08 01:23:57;;;;;;;;;1.50;0.00;;;;;;;;5075097;27;46401;-77
2022/04/08 01:26:22;;;;;;;;;0.00;0.00;;;;;;;;5075360;27;45484;-77
2022/04/08 01:28:48;;;;;;;;;1.00;0.00;;;;;;;;5074468;28;45489;-77
2022/04/08 01:31:13;;;;;;;;;0.25;0.00;;;;;;;;5075459;27;45331;-77
2022/04/08 01:33:38;;;;;;;;;1.00;0.00;;;;;;;;5076156;27;47131;-77
2022/04/08 01:36:04;;;;;;;;;0.00;0.00;;;;;;;;5075696;28;45505;-77
2022/04/08 01:38:29;;;;;;;;;3.25;2.00;;;;;;;;5071661;28;45500;-77
2022/04/08 01:40:54;;;;;;;;;1.00;1.00;;;;;;;;5075372;28;47494;-77
2022/04/08 01:43:19;;;;;;;;;1.50;1.25;;;;;;;;5075367;28;45251;-75
2022/04/08 01:45:45;;;;;;;;;1.00;1.00;;;;;;;;5075962;27;45292;-78
2022/04/08 01:48:10;;;;;;;;;0.50;0.50;;;;;;;;5065239;28;45446;-77
2022/04/08 01:50:35;;;;;;;;;1.00;1.00;;;;;;;;5063939;28;45654;-75
2022/04/08 01:53:00;;;;;;;;;0.50;0.50;;;;;;;;5063816;28;45531;-76
2022/04/08 01:55:25;;;;;;;;;1.25;0.00;;;;;;;;5075391;28;45355;-75
2022/04/08 01:57:51;;;;;;;;;2.50;0.50;;;;;;;;5072656;28;45240;-77
2022/04/08 02:00:16;;;;;;;;;1.50;0.50;;;;;;;;5076548;28;45298;-76
2022/04/08 02:02:41;;;;;;;;;1.75;0.75;;;;;;;;5067565;28;46885;-77
2022/04/08 02:05:07;;;;;;;;;0.75;0.75;;;;;;;;5065247;28;45452;-76
2022/04/08 02:07:32;;;;;;;;;0.50;0.25;;;;;;;;5064090;28;45398;-76
2022/04/08 02:09:57;;;;;;;;;2.00;0.50;;;;;;;;5079983;28;45299;-76
2022/04/08 02:12:22;;;;;;;;;1.25;1.00;;;;;;;;5076178;28;47005;-76
2022/04/08 02:14:48;;;;;;;;;0.75;0.00;;;;;;;;5077078;28;45457;-76
2022/04/08 02:17:13;;;;;;;;;0.00;0.00;;;;;;;;5074733;28;45333;-76
2022/04/08 02:19:38;;;;;;;;;2.00;1.00;;;;;;;;5075599;28;45544;-76
2022/04/08 02:22:05;;;;;;;;;2.50;0.00;;;;;;;;5059615;28;45463;-76
2022/04/08 02:24:31;;;;;;;;;1.50;0.25;;;;;;;;5075138;27;45352;-76
2022/04/08 02:26:57;;;;;;;;;1.00;0.50;;;;;;;;5066564;27;45483;-76
2022/04/08 02:29:22;;;;;;;;;3.00;0.75;;;;;;;;5067583;28;45229;-76
2022/04/08 02:31:47;;;;;;;;;0.25;0.25;;;;;;;;5081488;28;45362;-76
2022/04/08 02:34:12;;;;;;;;;2.00;0.00;;;;;;;;5079575;27;45302;-75
2022/04/08 02:36:38;;;;;;;;;0.00;0.00;;;;;;;;5079501;28;45275;-75
2022/04/08 02:39:04;;;;;;;;;0.25;0.00;;;;;;;;5080537;28;45370;-77
2022/04/08 02:41:29;;;;;;;;;1.25;0.50;;;;;;;;5079930;27;46179;-77
2022/04/08 02:43:55;;;;;;;;;1.50;1.00;;;;;;;;5078841;28;45517;-76
2022/04/08 02:46:20;;;;;;;;;0.00;0.00;;;;;;;;5079178;27;45229;-77
2022/04/08 02:48:45;;;;;;;;;0.75;0.00;;;;;;;;5078671;28;45573;-76
2022/04/08 02:51:10;;;;;;;;;0.00;0.00;;;;;;;;5077555;28;45416;-77
2022/04/08 02:53:35;;;;;;;;;1.50;0.25;;;;;;;;5078039;28;45270;-77
2022/04/08 02:56:01;;;;;;;;;0.00;0.00;;;;;;;;5078004;28;45391;-76
2022/04/08 02:58:26;;;;;;;;;2.00;1.00;;;;;;;;5071417;28;45169;-77
2022/04/08 03:00:51;;;;;;;;;3.75;1.00;;;;;;;;5077925;27;46027;-76
2022/04/08 03:03:17;;;;;;;;;0.25;0.25;;;;;;;;5077912;28;45465;-77
2022/04/08 03:05:42;;;;;;;;;0.00;0.00;;;;;;;;5071223;28;45350;-76
2022/04/08 03:08:07;;;;;;;;;0.00;0.00;;;;;;;;5067769;28;45431;-77
2022/04/08 03:10:33;;;;;;;;;2.25;0.25;;;;;;;;5076126;28;46085;-77
2022/04/08 03:12:58;;;;;;;;;0.00;0.00;;;;;;;;5075116;28;45403;-76
2022/04/08 03:15:23;;;;;;;;;3.25;1.00;;;;;;;;5079101;28;45337;-76
2022/04/08 03:17:51;;;;;;;;;1.75;1.00;;;;;;;;5081728;27;45354;-76
2022/04/08 03:20:16;;;;;;;;;1.00;0.00;;;;;;;;5074858;28;45584;-75
2022/04/08 03:22:42;;;;;;;;;2.50;1.00;;;;;;;;5064016;28;45484;-76
2022/04/08 03:25:07;;;;;;;;;0.00;0.00;;;;;;;;5079059;27;45459;-77
2022/04/08 03:27:32;;;;;;;;;2.25;1.00;;;;;;;;5079492;28;45381;-76
2022/04/08 03:29:58;;;;;;;;;1.00;1.00;;;;;;;;5070051;28;46055;-76
2022/04/08 03:32:23;;;;;;;;;2.75;1.75;;;;;;;;5078121;28;45281;-76
2022/04/08 03:34:57;;;;;;;;;1.00;1.00;;;;;;;;5083371;28;45438;-76
2022/04/08 03:37:22;;;;;;;;;0.00;0.00;;;;;;;;5068856;28;45239;-76
2022/04/08 03:39:48;;;;;;;;;2.25;1.25;;;;;;;;5082691;28;48103;-76
2022/04/08 03:42:13;;;;;;;;;1.00;0.75;;;;;;;;5069080;27;45380;-76
2022/04/08 03:44:39;;;;;;;;;2.00;1.00;;;;;;;;5065601;28;45544;-75
2022/04/08 03:47:04;;;;;;;;;1.50;1.00;;;;;;;;5066550;28;45378;-75
2022/04/08 03:49:32;;;;;;;;;3.00;0.25;;;;;;;;5076517;27;45290;-76
2022/04/08 03:51:58;;;;;;;;;0.00;0.00;;;;;;;;5077334;27;45388;-75
2022/04/08 03:54:23;;;;;;;;;2.00;1.00;;;;;;;;5077221;27;45571;-75
2022/04/08 03:56:48;;;;;;;;;1.50;1.50;;;;;;;;5076861;28;45328;-77
2022/04/08 03:59:14;;;;;;;;;2.50;0.75;;;;;;;;5068004;27;45453;-77
2022/04/08 04:01:39;;;;;;;;;0.50;0.00;;;;;;;;5076299;28;45462;-77
2022/04/08 04:04:05;;;;;;;;;1.50;1.50;;;;;;;;5076730;27;45347;-78
2022/04/08 04:06:30;;;;;;;;;1.00;0.75;;;;;;;;5076697;27;45490;-77
2022/04/08 04:08:55;;;;;;;;;1.25;1.25;;;;;;;;5076301;28;46974;-76
2022/04/08 04:11:20;;;;;;;;;2.00;2.00;;;;;;;;5069880;27;45771;-77
2022/04/08 04:13:46;;;;;;;;;0.50;0.50;;;;;;;;5076359;28;45560;-77
2022/04/08 04:16:11;;;;;;;;;3.75;1.00;;;;;;;;5076158;27;45366;-77
2022/04/08 04:18:37;;;;;;;;;2.00;0.00;;;;;;;;5061585;27;47293;-77
2022/04/08 04:21:03;;;;;;;;;1.00;1.00;;;;;;;;5064480;28;45463;-77
2022/04/08 04:23:28;;;;;;;;;2.00;0.50;;;;;;;;5063670;28;45437;-76
2022/04/08 04:25:53;;;;;;;;;2.00;1.00;;;;;;;;5070707;28;45529;-76
2022/04/08 04:28:18;;;;;;;;;1.00;1.00;;;;;;;;5075943;27;47212;-77
2022/04/08 04:30:44;;;;;;;;;1.75;1.00;;;;;;;;5076156;28;45319;-77
2022/04/08 04:33:09;;;;;;;;;3.75;1.25;;;;;;;;5065419;28;45571;-77
2022/04/08 04:35:35;;;;;;;;;0.50;0.00;;;;;;;;5069284;28;47939;-78
2022/04/08 04:38:00;;;;;;;;;3.00;1.00;;;;;;;;5075507;27;47245;-76
2022/04/08 04:40:26;;;;;;;;;2.50;2.00;;;;;;;;5076082;28;45328;-77
2022/04/08 04:42:51;;;;;;;;;0.75;0.75;;;;;;;;5076116;27;45275;-76
2022/04/08 04:45:16;;;;;;;;;0.00;0.00;;;;;;;;5075311;28;45397;-78
2022/04/08 04:47:41;;;;;;;;;2.00;2.00;;;;;;;;5075004;28;47812;-74
2022/04/08 04:50:07;;;;;;;;;2.50;2.50;;;;;;;;5075413;28;45612;-77
2022/04/08 04:52:32;;;;;;;;;1.00;1.00;;;;;;;;5074695;27;45351;-77
2022/04/08 04:54:57;;;;;;;;;3.00;2.00;;;;;;;;5059541;28;45363;-77
2022/04/08 04:57:23;;;;;;;;;0.75;0.75;;;;;;;;5065078;28;47126;-76
2022/04/08 04:59:48;;;;;;;;;3.00;2.00;;;;;;;;5069917;28;45478;-76
2022/04/08 05:02:13;;;;;;;;;1.00;1.00;;;;;;;;5075145;27;45277;-76
2022/04/08 05:04:38;;;;;;;;;1.00;1.00;;;;;;;;5075423;28;45474;-75
2022/04/08 05:07:04;;;;;;;;;2.50;1.00;;;;;;;;5075040;27;46083;-75
2022/04/08 05:09:29;;;;;;;;;2.75;1.75;;;;;;;;5075301;28;45418;-77
2022/04/08 05:11:54;;;;;;;;;0.00;0.00;;;;;;;;5070427;28;45496;-77
2022/04/08 05:14:22;;;;;;;;;0.25;0.25;;;;;;;;5074447;27;45564;-78
2022/04/08 05:16:47;;;;;;;;;0.00;0.00;;;;;;;;5074281;28;45866;-76
2022/04/08 05:19:12;;;;;;;;;0.00;0.00;;;;;;;;5074453;27;45424;-77
2022/04/08 05:21:38;;;;;;;;;1.00;1.00;;;;;;;;5075196;28;45373;-77
2022/04/08 05:24:03;;;;;;;;;2.00;2.00;;;;;;;;5064009;28;45370;-77
2022/04/08 05:26:28;;;;;;;;;1.75;0.75;;;;;;;;5066131;28;46226;-76
2022/04/08 05:28:53;;;;;;;;;1.25;0.00;;;;;;;;5074430;28;46759;-78
2022/04/08 05:31:19;;;;;;;;;1.25;0.75;;;;;;;;5058542;28;45277;-78
2022/04/08 05:33:44;;;;;;;;;1.75;1.75;;;;;;;;5059006;28;45207;-77
2022/04/08 05:36:09;;;;;;;;;2.00;1.25;;;;;;;;5071722;28;45441;-77
2022/04/08 05:38:34;;;;;;;;;3.00;1.00;;;;;;;;5068145;28;45399;-77
2022/04/08 05:41:00;;;;;;;;;2.75;1.00;;;;;;;;5073784;27;45235;-76
2022/04/08 05:43:25;;;;;;;;;3.00;2.00;;;;;;;;5058873;28;45269;-77
2022/04/08 05:45:50;;;;;;;;;2.00;2.00;;;;;;;;5074461;27;47108;-78
2022/04/08 05:48:15;;;;;;;;;1.00;1.00;;;;;;;;5073994;27;45441;-77
2022/04/08 05:50:41;;;;;;;;;0.00;0.00;;;;;;;;5074210;28;45361;-78
2022/04/08 05:53:06;;;;;;;;;1.00;1.00;;;;;;;;5074151;28;45420;-77
2022/04/08 05:55:31;;;;;;;;;1.25;1.00;;;;;;;;5074087;28;46574;-78
2022/04/08 05:57:56;;;;;;;;;2.00;1.00;;;;;;;;5074234;27;45591;-78
2022/04/08 06:00:24;;;;;;;;;1.00;0.00;;;;;;;;5066546;28;45513;-77
2022/04/08 06:02:50;;;;;;;;;1.50;1.00;;;;;;;;5073028;28;45377;-76
2022/04/08 06:05:18;;;;;;;;;1.00;1.00;;;;;;;;5073061;27;45503;-77
2022/04/08 06:07:54;;;;;;;;;1.75;1.50;;;;;;;;5074522;27;45484;-80
2022/04/08 06:10:22;;;;;;;;;2.00;1.00;;;;;;;;5077836;27;45291;-80
2022/04/08 06:12:47;;;;;;;;;2.00;0.25;;;;;;;;5071568;27;45511;-81
2022/04/08 06:15:13;;;;;;;;;1.00;0.00;;;;;;;;5064136;27;46437;-78
2022/04/08 06:17:38;;;;;;;;;0.00;0.00;;;;;;;;5062082;28;45537;-78
2022/04/08 06:20:09;;;;;;;;;0.75;0.75;;;;;;;;5062497;28;45519;-79
2022/04/08 06:22:34;;;;;;;;;0.50;0.50;;;;;;;;5060727;28;45407;-78
2022/04/08 06:25:00;;;;;;;;;1.75;1.00;;;;;;;;5057517;28;45290;-81
2022/04/08 06:27:25;;;;;;;;;1.00;1.00;;;;;;;;5061133;28;45220;-78
2022/04/08 06:29:50;;;;;;;;;1.00;1.00;;;;;;;;5066217;28;45474;-77
2022/04/08 06:32:15;;;;;;;;;12.00;8.00;;;;;;;;5074754;28;45477;-81
2022/04/08 06:34:40;;;;;;;;;2.00;1.50;;;;;;;;5070328;28;46091;-79
2022/04/08 06:37:06;;;;;;;;;1.00;1.00;;;;;;;;5068172;28;45371;-80
2022/04/08 06:39:31;;;;;;;;;17.00;14.00;;;;;;;;5063100;28;45162;-81
2022/04/08 06:41:57;;;;;;;;;2.50;1.75;;;;;;;;5071977;28;45411;-79
2022/04/08 06:44:22;;;;;;;;;4.50;3.50;;;;;;;;5064482;28;47025;-81
2022/04/08 06:46:47;;;;;;;;;5.00;4.00;;;;;;;;5067852;28;45566;-81
2022/04/08 06:49:13;;;;;;;;;7.25;4.50;;;;;;;;5073882;28;45379;-81
2022/04/08 06:51:38;;;;;;;;;5.25;3.50;;;;;;;;5077906;27;45468;-80
2022/04/08 06:54:03;;;;;;;;;2.75;2.75;;;;;;;;5066451;28;46521;-82
2022/04/08 06:56:28;;;;;;;;;0.25;0.25;;;;;;;;5067824;28;45563;-81
2022/04/08 06:58:54;;;;;;;;;4.50;3.50;;;;;;;;5062201;28;45271;-81
2022/04/08 07:01:19;;;;;;;;;3.50;3.50;;;;;;;;5055704;28;45347;-83
2022/04/08 07:03:44;;;;;;;;;9.00;6.00;;;;;;;;5073799;28;46357;-78
2022/04/08 07:06:09;;;;;;;;;10.00;9.00;;;;;;;;5059906;28;45457;-85
2022/04/08 07:08:34;;;;;;;;;7.75;4.00;;;;;;;;5063245;28;45469;-83
2022/04/08 07:11:00;;;;;;;;;6.25;4.00;;;;;;;;5063432;28;45634;-83
2022/04/08 07:13:28;;;;;;;;;2.50;2.50;;;;;;;;5058350;28;45341;-84
2022/04/08 07:15:54;;;;;;;;;3.75;2.75;;;;;;;;5061202;27;45338;-84
2022/04/08 07:18:21;;;;;;;;;6.25;4.25;;;;;;;;5078320;28;45439;-84
2022/04/08 07:20:46;;;;;;;;;8.75;4.50;;;;;;;;5079095;28;45330;-84
2022/04/08 07:23:12;;;;;;;;;12.25;9.50;;;;;;;;5083755;27;46337;-83
2022/04/08 07:25:38;;;;;;;;;5.25;4.00;;;;;;;;5080760;28;45342;-81
2022/04/08 07:28:03;;;;;;;;;4.75;4.25;;;;;;;;5082358;28;45389;-80
2022/04/08 07:30:29;;;;;;;;;6.75;4.00;;;;;;;;5080620;27;45585;-80
2022/04/08 07:32:54;;;;;;;;;4.00;4.00;;;;;;;;5077654;28;46427;-80
2022/04/08 07:35:23;;;;;;;;;6.50;5.50;;;;;;;;5075818;28;45466;-80
2022/04/08 07:37:49;;;;;;;;;5.75;4.00;;;;;;;;5077607;27;45677;-81
2022/04/08 07:40:14;;;;;;;;;3.75;3.75;;;;;;;;5076986;27;45551;-80
2022/04/08 07:42:40;;;;;;;;;5.00;5.00;;;;;;;;5077250;27;47077;-79
2022/04/08 07:45:06;;;;;;;;;5.50;5.00;;;;;;;;5076951;28;45251;-80
2022/04/08 07:47:31;;;;;;;;;9.25;9.25;;;;;;;;5077748;27;44818;-80
2022/04/08 07:49:58;;;;;;;;;4.25;4.25;;;;;;;;5077102;28;45372;-80
2022/04/08 07:52:23;;;;;;;;;7.25;4.25;;;;;;;;5075960;27;45482;-80
2022/04/08 07:54:48;;;;;;;;;2.00;2.00;;;;;;;;5077056;28;45367;-79
2022/04/08 07:57:13;;;;;;;;;3.75;3.75;;;;;;;;5063486;28;45357;-80
2022/04/08 07:59:38;;;;;;;;;4.25;4.00;;;;;;;;5070590;28;45404;-80
2022/04/08 08:02:04;;;;;;;;;3.50;2.75;;;;;;;;5075913;27;46086;-81
2022/04/08 08:04:29;;;;;;;;;2.50;1.50;;;;;;;;5075937;28;45315;-80
2022/04/08 08:06:54;;;;;;;;;3.00;3.00;;;;;;;;5060381;28;45390;-81
2022/04/08 08:09:19;;;;;;;;;6.50;3.25;;;;;;;;5065762;28;45570;-80
2022/04/08 08:11:45;;;;;;;;;2.00;2.00;;;;;;;;5074294;28;46462;-80
2022/04/08 08:14:10;;;;;;;;;5.75;4.25;;;;;;;;5075235;28;45286;-80
2022/04/08 08:16:35;;;;;;;;;1.75;1.75;;;;;;;;5078677;28;47578;-78
2022/04/08 08:19:00;;;;;;;;;4.00;4.00;;;;;;;;5081206;28;45337;-82
2022/04/08 08:21:26;;;;;;;;;4.00;1.50;;;;;;;;5065105;28;47205;-81
2022/04/08 08:23:51;;;;;;;;;3.00;3.00;;;;;;;;5072555;28;45464;-80
2022/04/08 08:26:17;;;;;;;;;5.25;4.00;;;;;;;;5074530;28;45433;-80
2022/04/08 08:28:42;;;;;;;;;2.00;2.00;;;;;;;;5074009;28;45474;-79
2022/04/08 08:31:07;;;;;;;;;1.00;0.00;;;;;;;;5074686;28;46325;-81
2022/04/08 08:33:32;;;;;;;;;1.25;1.25;;;;;;;;5063554;28;45388;-81
2022/04/08 08:35:58;;;;;;;;;3.50;2.00;;;;;;;;5072728;28;45450;-80
2022/04/08 08:38:23;;;;;;;;;1.25;1.25;;;;;;;;5075743;28;45341;-80
2022/04/08 08:40:49;;;;;;;;;2.00;2.00;;;;;;;;5075791;28;46778;-80
2022/04/08 08:43:18;;;;;;;;;2.00;2.00;;;;;;;;5075711;27;45271;-80
2022/04/08 08:45:44;;;;;;;;;8.75;7.75;;;;;;;;5076222;27;45484;-80
2022/04/08 08:48:10;;;;;;;;;4.25;4.25;;;;;;;;5076087;27;45537;-79
2022/04/08 08:50:37;;;;;;;;;9.00;6.75;;;;;;;;5078493;28;46139;-80
2022/04/08 08:53:02;;;;;;;;;9.50;9.50;;;;;;;;5077640;27;45626;-81
2022/04/08 08:55:27;;;;;;;;;12.50;10.50;;;;;;;;5076105;28;45393;-81
2022/04/08 08:57:53;;;;;;;;;9.00;7.50;;;;;;;;5060919;28;45374;-80
2022/04/08 09:00:19;;;;;;;;;7.25;6.75;;;;;;;;5064363;28;45568;-81
2022/04/08 09:02:48;;;;;;;;;11.75;10.50;;;;;;;;5063838;28;45481;-81
2022/04/08 09:05:20;;;;;;;;;27.00;25.75;;;;;;;;5066143;28;45368;-80
2022/04/08 09:07:59;;;;;;;;;5.75;5.75;;;;;;;;5075196;27;45461;-80
2022/04/08 09:10:28;;;;;;;;;3.50;3.50;;;;;;;;5062330;28;46042;-80
2022/04/08 09:12:54;;;;;;;;;3.00;2.00;;;;;;;;5075867;28;45295;-80
2022/04/08 09:15:20;;;;;;;;;3.50;2.75;;;;;;;;5086636;27;45386;-80
2022/04/08 09:17:45;;;;;;;;;3.75;2.50;;;;;;;;5065996;28;45331;-79
2022/04/08 09:20:11;;;;;;;;;4.00;3.00;;;;;;;;5067394;28;46074;-79
2022/04/08 09:22:37;;;;;;;;;4.25;4.25;;;;;;;;5075746;28;45525;-80
2022/04/08 09:25:10;;;;;;;;;5.50;5.50;;;;;;;;5076089;27;45509;-81
2022/04/08 09:27:36;;;;;;;;;7.25;7.25;;;;;;;;5070416;28;45355;-79
2022/04/08 09:30:02;;;;;;;;;2.25;2.00;;;;;;;;5075625;27;46499;-80
2022/04/08 09:32:30;;;;;;;;;5.00;4.00;;;;;;;;5076824;27;45493;-80
2022/04/08 09:34:55;;;;;;;;;4.50;4.00;;;;;;;;5076982;27;45279;-80
2022/04/08 09:37:21;;;;;;;;;3.00;3.00;;;;;;;;5075115;28;45600;-80
2022/04/08 09:39:56;;;;;;;;;4.25;3.25;;;;;;;;5061204;27;46063;-81
2022/04/08 09:42:22;;;;;;;;;14.50;12.25;;;;;;;;5063955;27;45444;-81
2022/04/08 09:44:48;;;;;;;;;10.75;5.75;;;;;;;;5071293;28;45461;-81
2022/04/08 09:47:13;;;;;;;;;4.50;3.50;;;;;;;;5075238;28;45539;-81
2022/04/08 09:49:39;;;;;;;;;2.25;2.00;;;;;;;;5075026;27;46283;-80
2022/04/08 09:52:05;;;;;;;;;2.00;2.00;;;;;;;;5074997;27;45001;-79
2022/04/08 09:54:32;;;;;;;;;5.50;4.00;;;;;;;;5076132;27;45458;-80
2022/04/08 09:56:58;;;;;;;;;25.75;21.50;;;;;;;;5067041;27;45521;-80
2022/04/08 09:59:27;;;;;;;;;4.25;4.25;;;;;;;;5065280;28;47030;-80
2022/04/08 10:01:52;;;;;;;;;5.75;4.00;;;;;;;;5071256;27;45416;-78
2022/04/08 10:04:19;;;;;;;;;5.00;5.00;;;;;;;;5071323;27;45318;-80
2022/04/08 10:06:44;;;;;;;;;2.25;2.25;;;;;;;;5068670;28;45654;-79
2022/04/08 10:09:10;;;;;;;;;3.50;3.00;;;;;;;;5072866;28;46432;-80
2022/04/08 10:11:44;;;;;;;;;5.25;2.00;;;;;;;;5074532;28;45442;-78
2022/04/08 10:14:15;;;;;;;;;1.00;1.00;;;;;;;;5078626;27;44886;-78
2022/04/08 10:16:40;;;;;;;;;3.00;3.00;;;;;;;;5065132;28;45275;-79
2022/04/08 10:19:07;;;;;;;;;4.00;4.00;;;;;;;;5075542;27;46936;-78
2022/04/08 10:21:39;;;;;;;;;5.00;5.00;;;;;;;;5074942;27;45361;-78
2022/04/08 10:24:13;;;;;;;;;4.50;4.50;;;;;;;;5063719;27;45600;-79
2022/04/08 10:27:04;;;;;;;;;1.75;1.75;;;;;;;;5069357;28;45368;-80
2022/04/08 10:29:33;;;;;;;;;3.00;3.00;;;;;;;;5072735;28;46564;-78
2022/04/08 10:32:02;;;;;;;;;7.00;7.00;;;;;;;;5073095;27;45391;-79
2022/04/08 10:34:28;;;;;;;;;7.25;5.75;;;;;;;;5057297;28;45324;-78
2022/04/08 10:36:54;;;;;;;;;2.00;2.00;;;;;;;;5073331;27;45240;-80
2022/04/08 10:39:22;;;;;;;;;4.00;4.00;;;;;;;;5073088;28;46045;-81
2022/04/08 10:41:47;;;;;;;;;2.00;2.00;;;;;;;;5072631;28;45547;-81
2022/04/08 10:44:13;;;;;;;;;2.00;2.00;;;;;;;;5072408;27;45263;-79
2022/04/08 10:47:00;;;;;;;;;3.75;2.75;;;;;;;;5072772;27;45560;-79
2022/04/08 10:49:25;;;;;;;;;24.50;18.25;;;;;;;;5056485;28;46421;-79
2022/04/08 10:51:50;;;;;;;;;9.00;7.25;;;;;;;;5076673;27;45385;-78
2022/04/08 10:54:16;;;;;;;;;4.50;2.50;;;;;;;;5064676;27;45353;-78
2022/04/08 10:56:41;;;;;;;;;4.00;4.00;;;;;;;;5064844;28;45503;-76
2022/04/08 10:59:07;;;;;;;;;4.00;4.00;;;;;;;;5066728;28;46353;-78
2022/04/08 11:01:35;;;;;;;;;6.50;6.00;;;;;;;;5075480;28;45448;-79
2022/04/08 11:04:02;;;;;;;;;1.00;1.00;;;;;;;;5076665;27;45243;-80
2022/04/08 11:06:28;;;;;;;;;2.50;2.50;;;;;;;;5062691;28;45355;-79
2022/04/08 11:08:54;;;;;;;;;3.25;2.75;;;;;;;;5072077;28;45527;-79
2022/04/08 11:11:28;;;;;;;;;1.00;1.00;;;;;;;;5076960;28;45414;-79
2022/04/08 11:13:54;;;;;;;;;4.75;4.75;;;;;;;;5076984;28;45503;-78
2022/04/08 11:16:20;;;;;;;;;2.00;0.00;;;;;;;;5076353;27;45775;-75
2022/04/08 11:18:48;;;;;;;;;2.00;2.00;;;;;;;;5060662;27;47235;-78
2022/04/08 11:21:17;;;;;;;;;2.50;2.50;;;;;;;;5074548;28;45303;-76
2022/04/08 11:23:43;;;;;;;;;2.75;1.75;;;;;;;;5075780;27;45358;-77
2022/04/08 11:26:11;;;;;;;;;3.75;3.75;;;;;;;;5075322;28;45414;-76
2022/04/08 11:28:36;;;;;;;;;18.50;14.25;;;;;;;;5075070;28;46259;-76
2022/04/08 11:31:01;;;;;;;;;5.00;5.00;;;;;;;;5073921;28;45610;-76
2022/04/08 11:33:30;;;;;;;;;6.00;5.00;;;;;;;;5062499;28;45477;-80
2022/04/08 11:36:00;;;;;;;;;3.00;3.00;;;;;;;;5064852;28;45424;-80
2022/04/08 11:38:27;;;;;;;;;6.00;6.00;;;;;;;;5070294;28;46232;-80
2022/04/08 11:40:52;;;;;;;;;11.50;9.00;;;;;;;;5078187;27;45374;-80
2022/04/08 11:43:19;;;;;;;;;3.00;3.00;;;;;;;;5076491;27;45391;-80
2022/04/08 11:45:44;;;;;;;;;6.25;6.25;;;;;;;;5062002;27;45404;-80
2022/04/08 11:48:17;;;;;;;;;6.00;6.00;;;;;;;;5073507;28;48196;-79
2022/04/08 11:50:43;;;;;;;;;4.50;4.00;;;;;;;;5076447;27;45366;-80
2022/04/08 11:53:18;;;;;;;;;9.50;9.50;;;;;;;;5076441;27;45442;-79
2022/04/08 11:55:57;;;;;;;;;7.25;6.25;;;;;;;;5075016;28;45531;-80
2022/04/08 11:58:23;;;;;;;;;5.00;5.00;;;;;;;;5076891;27;47779;-80
2022/04/08 12:00:49;;;;;;;;;4.75;4.00;;;;;;;;5075083;27;45607;-80
2022/04/08 12:03:21;;;;;;;;;4.25;4.25;;;;;;;;5075768;27;45391;-80
2022/04/08 12:05:50;;;;;;;;;4.00;4.00;;;;;;;;5068978;28;45531;-80
2022/04/08 12:08:15;;;;;;;;;1.75;1.75;;;;;;;;5064966;28;45460;-81
2022/04/08 12:10:41;;;;;;;;;10.25;6.00;;;;;;;;5065538;28;45300;-79
2022/04/08 12:13:16;;;;;;;;;4.25;4.00;;;;;;;;5083923;27;45385;-80
2022/04/08 12:15:44;;;;;;;;;4.25;4.25;;;;;;;;5076096;28;45395;-81
2022/04/08 12:18:10;;;;;;;;;6.00;6.00;;;;;;;;5076839;27;47024;-82
2022/04/08 12:20:39;;;;;;;;;5.25;5.00;;;;;;;;5076670;27;45399;-80
2022/04/08 12:23:05;;;;;;;;;7.00;5.25;;;;;;;;5076802;27;45390;-80
2022/04/08 12:25:30;;;;;;;;;7.25;7.25;;;;;;;;5076814;27;45482;-78
2022/04/08 12:27:57;;;;;;;;;4.75;4.75;;;;;;;;5077799;27;46197;-79
2022/04/08 12:30:27;;;;;;;;;4.50;4.50;;;;;;;;5077296;27;45320;-80
2022/04/08 12:32:52;;;;;;;;;6.25;6.25;;;;;;;;5075719;27;45441;-81
2022/04/08 12:35:18;;;;;;;;;9.25;8.25;;;;;;;;5076443;28;45267;-79
2022/04/08 12:37:44;;;;;;;;;5.00;5.00;;;;;;;;5076498;28;47505;-79
2022/04/08 12:40:10;;;;;;;;;5.00;5.00;;;;;;;;5075876;27;45386;-81
2022/04/08 12:42:36;;;;;;;;;5.75;5.75;;;;;;;;5074610;28;45325;-80
2022/04/08 12:45:03;;;;;;;;;7.00;5.75;;;;;;;;5076683;27;47238;-79
2022/04/08 12:47:28;;;;;;;;;5.00;5.00;;;;;;;;5082880;27;46556;-79
2022/04/08 12:49:53;;;;;;;;;5.00;5.00;;;;;;;;5082351;28;45264;-81
2022/04/08 12:52:18;;;;;;;;;5.00;5.00;;;;;;;;5079271;27;45478;-80
2022/04/08 12:54:44;;;;;;;;;4.00;4.00;;;;;;;;5077146;28;44755;-80
2022/04/08 12:57:09;;;;;;;;;5.25;5.25;;;;;;;;5065852;28;45262;-80
2022/04/08 12:59:34;;;;;;;;;3.00;3.00;;;;;;;;5068919;28;45263;-80
2022/04/08 13:01:59;;;;;;;;;4.00;4.00;;;;;;;;5075302;28;45282;-80
2022/04/08 13:04:25;;;;;;;;;3.00;3.00;;;;;;;;5076310;28;45333;-80
2022/04/08 13:06:52;;;;;;;;;3.00;3.00;;;;;;;;5076868;28;46303;-80
2022/04/08 13:09:19;;;;;;;;;4.00;4.00;;;;;;;;5064875;28;45392;-81
2022/04/08 13:11:46;;;;;;;;;3.00;3.00;;;;;;;;5070280;28;45437;-80
2022/04/08 13:14:11;;;;;;;;;3.75;3.75;;;;;;;;5074357;27;45421;-81
2022/04/08 13:16:36;;;;;;;;;4.00;3.00;;;;;;;;5074934;28;45318;-80
2022/04/08 13:19:02;;;;;;;;;5.00;5.00;;;;;;;;5059350;28;45373;-82
2022/04/08 13:21:27;;;;;;;;;3.00;2.00;;;;;;;;5062207;28;45298;-80
2022/04/08 13:23:53;;;;;;;;;1.50;1.50;;;;;;;;5071814;28;45359;-80
2022/04/08 13:26:18;;;;;;;;;2.00;2.00;;;;;;;;5076431;28;45473;-80
2022/04/08 13:28:43;;;;;;;;;1.00;1.00;;;;;;;;5075040;28;45459;-77
2022/04/08 13:31:09;;;;;;;;;2.00;2.00;;;;;;;;5076946;27;45267;-80
2022/04/08 13:33:34;;;;;;;;;3.25;1.00;;;;;;;;5077413;28;45307;-80
2022/04/08 13:36:00;;;;;;;;;2.75;2.75;;;;;;;;5067804;27;45429;-81
2022/04/08 13:38:26;;;;;;;;;2.25;2.25;;;;;;;;5069341;28;45438;-83
2022/04/08 13:40:51;;;;;;;;;1.50;1.50;;;;;;;;5076297;27;45356;-84
2022/04/08 13:43:17;;;;;;;;;3.00;2.75;;;;;;;;5060378;28;45288;-82
2022/04/08 13:45:42;;;;;;;;;3.00;3.00;;;;;;;;5062421;27;46328;-79
2022/04/08 13:48:07;;;;;;;;;19.50;16.50;;;;;;;;5074115;28;45415;-80
2022/04/08 13:50:32;;;;;;;;;4.00;4.00;;;;;;;;5075928;28;45492;-79
2022/04/08 13:52:58;;;;;;;;;3.25;3.25;;;;;;;;5075534;27;45523;-79
2022/04/08 13:55:23;;;;;;;;;4.25;4.00;;;;;;;;5075993;27;47424;-80
2022/04/08 13:57:48;;;;;;;;;0.00;0.00;;;;;;;;5076019;27;45568;-80
2022/04/08 14:00:14;;;;;;;;;2.25;2.00;;;;;;;;5076317;27;45218;-80
2022/04/08 14:02:40;;;;;;;;;3.00;3.00;;;;;;;;5069663;27;45499;-80
2022/04/08 14:05:06;;;;;;;;;3.75;3.75;;;;;;;;5065334;28;46777;-78
2022/04/08 14:07:31;;;;;;;;;2.00;2.00;;;;;;;;5077044;28;45275;-80
2022/04/08 14:09:58;;;;;;;;;6.50;5.50;;;;;;;;5074641;28;45502;-80
2022/04/08 14:12:23;;;;;;;;;1.00;1.00;;;;;;;;5075523;28;45304;-80
2022/04/08 14:14:48;;;;;;;;;3.50;3.00;;;;;;;;5067661;28;45505;-80
2022/04/08 14:17:15;;;;;;;;;3.00;2.00;;;;;;;;5065076;28;45444;-80
2022/04/08 14:19:41;;;;;;;;;2.75;2.00;;;;;;;;5075301;28;45361;-80
2022/04/08 14:22:06;;;;;;;;;4.00;4.00;;;;;;;;5075953;27;45324;-80
2022/04/08 14:24:31;;;;;;;;;2.00;2.00;;;;;;;;5076571;28;46393;-78
2022/04/08 14:26:56;;;;;;;;;3.00;2.50;;;;;;;;5070577;28;45724;-80
2022/04/08 14:29:22;;;;;;;;;3.00;3.00;;;;;;;;5071063;28;45457;-80
2022/04/08 14:31:47;;;;;;;;;5.75;5.25;;;;;;;;5080375;27;45466;-80
2022/04/08 14:34:14;;;;;;;;;6.00;4.50;;;;;;;;5084303;27;46321;-79
2022/04/08 14:36:39;;;;;;;;;5.00;5.00;;;;;;;;5086894;27;45397;-80